sensor_id;sensor_type;location;lat;lon;timestamp;P1;durP1;ratioP1;P2;durP2;ratioP2
72422;SDS011;60413;55.658;37.498;2022-08-11T00:01:22;2.47;;;1.00;;
72422;SDS011;60413;55.658;37.498;2022-08-11T00:03:53;2.25;;;0.98;;
72422;SDS011;60413;55.658;37.498;2022-08-11T00:06:37;1.55;;;1.00;;
72422;SDS011;60413;55.658;37.498;2022-08-11T00:09:18;1.88;;;0.93;;
72422;SDS011;60413;55.658;37.498;2022-08-11T00:11:50;2.22;;;0.90;;
72422;SDS011;60413;55.658;37.498;2022-08-11T00:17:12;3.25;;;0.70;;
72422;SDS011;60413;55.658;37.498;2022-08-11T00:19:38;1.65;;;0.85;;
72422;SDS011;60413;55.658;37.498;2022-08-11T00:22:06;3.20;;;1.20;;
72422;SDS011;60413;55.658;37.498;2022-08-11T00:24:34;2.50;;;0.98;;
72422;SDS011;60413;55.658;37.498;2022-08-11T00:27:02;2.00;;;0.80;;
72422;SDS011;60413;55.658;37.498;2022-08-11T00:29:29;2.53;;;0.70;;
72422;SDS011;60413;55.658;37.498;2022-08-11T00:31:56;2.45;;;0.82;;
72422;SDS011;60413;55.658;37.498;2022-08-11T00:34:27;1.58;;;0.88;;
72422;SDS011;60413;55.658;37.498;2022-08-11T00:36:55;2.35;;;0.90;;
72422;SDS011;60413;55.658;37.498;2022-08-11T00:39:24;2.60;;;0.85;;
72422;SDS011;60413;55.658;37.498;2022-08-11T00:47:04;7.63;;;1.90;;
72422;SDS011;60413;55.658;37.498;2022-08-11T00:55:38;2.72;;;1.02;;
72422;SDS011;60413;55.658;37.498;2022-08-11T01:09:48;1.77;;;0.88;;
72422;SDS011;60413;55.658;37.498;2022-08-11T01:38:46;2.88;;;1.17;;
72422;SDS011;60413;55.658;37.498;2022-08-11T01:50:16;3.42;;;1.10;;
72422;SDS011;60413;55.658;37.498;2022-08-11T02:06:57;2.40;;;0.90;;
72422;SDS011;60413;55.658;37.498;2022-08-11T02:12:21;1.65;;;0.73;;
72422;SDS011;60413;55.658;37.498;2022-08-11T02:15:00;1.92;;;0.88;;
72422;SDS011;60413;55.658;37.498;2022-08-11T02:20:30;5.85;;;1.20;;
72422;SDS011;60413;55.658;37.498;2022-08-11T02:25:58;3.88;;;1.27;;
72422;SDS011;60413;55.658;37.498;2022-08-11T02:37:58;2.83;;;1.00;;
72422;SDS011;60413;55.658;37.498;2022-08-11T02:46:17;2.53;;;1.05;;
72422;SDS011;60413;55.658;37.498;2022-08-11T03:10:47;2.83;;;1.10;;
72422;SDS011;60413;55.658;37.498;2022-08-11T03:16:59;5.90;;;1.48;;
72422;SDS011;60413;55.658;37.498;2022-08-11T03:22:25;1.60;;;1.00;;
72422;SDS011;60413;55.658;37.498;2022-08-11T03:25:02;5.68;;;1.10;;
72422;SDS011;60413;55.658;37.498;2022-08-11T03:33:24;4.55;;;1.20;;
72422;SDS011;60413;55.658;37.498;2022-08-11T03:39:26;3.50;;;1.00;;
72422;SDS011;60413;55.658;37.498;2022-08-11T03:59:26;2.30;;;1.30;;
72422;SDS011;60413;55.658;37.498;2022-08-11T04:16:07;6.22;;;1.35;;
72422;SDS011;60413;55.658;37.498;2022-08-11T04:25:38;6.40;;;1.25;;
72422;SDS011;60413;55.658;37.498;2022-08-11T04:39:52;5.20;;;1.85;;
72422;SDS011;60413;55.658;37.498;2022-08-11T04:58:18;7.18;;;1.75;;
72422;SDS011;60413;55.658;37.498;2022-08-11T05:01:09;5.80;;;1.60;;
72422;SDS011;60413;55.658;37.498;2022-08-11T05:13:29;6.53;;;2.92;;
72422;SDS011;60413;55.658;37.498;2022-08-11T05:16:17;3.65;;;1.67;;
72422;SDS011;60413;55.658;37.498;2022-08-11T05:19:06;4.00;;;1.60;;
72422;SDS011;60413;55.658;37.498;2022-08-11T05:21:52;6.30;;;1.60;;
72422;SDS011;60413;55.658;37.498;2022-08-11T05:24:47;5.15;;;1.70;;
72422;SDS011;60413;55.658;37.498;2022-08-11T05:30:42;4.85;;;1.73;;
72422;SDS011;60413;55.658;37.498;2022-08-11T05:33:46;3.08;;;1.58;;
72422;SDS011;60413;55.658;37.498;2022-08-11T05:39:25;2.28;;;1.40;;
72422;SDS011;60413;55.658;37.498;2022-08-11T05:42:12;3.05;;;1.48;;
72422;SDS011;60413;55.658;37.498;2022-08-11T05:45:00;5.05;;;1.50;;
72422;SDS011;60413;55.658;37.498;2022-08-11T05:47:53;5.72;;;1.40;;
72422;SDS011;60413;55.658;37.498;2022-08-11T05:50:38;4.15;;;1.40;;
72422;SDS011;60413;55.658;37.498;2022-08-11T05:53:23;5.25;;;1.67;;
72422;SDS011;60413;55.658;37.498;2022-08-11T05:56:08;5.00;;;2.00;;
72422;SDS011;60413;55.658;37.498;2022-08-11T05:58:55;2.70;;;1.30;;
72422;SDS011;60413;55.658;37.498;2022-08-11T06:01:23;4.60;;;1.67;;
72422;SDS011;60413;55.658;37.498;2022-08-11T06:03:52;5.60;;;1.77;;
72422;SDS011;60413;55.658;37.498;2022-08-11T06:06:50;5.32;;;1.60;;
72422;SDS011;60413;55.658;37.498;2022-08-11T06:12:17;3.95;;;1.58;;
72422;SDS011;60413;55.658;37.498;2022-08-11T06:14:48;5.65;;;1.52;;
72422;SDS011;60413;55.658;37.498;2022-08-11T06:17:26;7.35;;;1.63;;
72422;SDS011;60413;55.658;37.498;2022-08-11T06:19:59;7.10;;;1.70;;
72422;SDS011;60413;55.658;37.498;2022-08-11T06:22:38;4.53;;;1.52;;
72422;SDS011;60413;55.658;37.498;2022-08-11T06:25:11;3.53;;;1.25;;
72422;SDS011;60413;55.658;37.498;2022-08-11T06:27:40;2.40;;;1.48;;
72422;SDS011;60413;55.658;37.498;2022-08-11T06:30:10;3.70;;;1.50;;
72422;SDS011;60413;55.658;37.498;2022-08-11T06:32:43;3.80;;;1.40;;
72422;SDS011;60413;55.658;37.498;2022-08-11T06:43:14;4.40;;;1.35;;
72422;SDS011;60413;55.658;37.498;2022-08-11T06:48:22;8.38;;;5.00;;
72422;SDS011;60413;55.658;37.498;2022-08-11T06:50:50;4.63;;;1.70;;
72422;SDS011;60413;55.658;37.498;2022-08-11T06:53:43;7.05;;;2.20;;
72422;SDS011;60413;55.658;37.498;2022-08-11T06:56:22;4.25;;;2.03;;
72422;SDS011;60413;55.658;37.498;2022-08-11T06:59:10;2.05;;;1.40;;
72422;SDS011;60413;55.658;37.498;2022-08-11T07:04:40;13.82;;;1.88;;
72422;SDS011;60413;55.658;37.498;2022-08-11T07:10:18;2.63;;;0.90;;
72422;SDS011;60413;55.658;37.498;2022-08-11T07:13:03;5.93;;;1.30;;
72422;SDS011;60413;55.658;37.498;2022-08-11T07:15:49;2.40;;;1.10;;
72422;SDS011;60413;55.658;37.498;2022-08-11T07:18:22;4.90;;;1.40;;
72422;SDS011;60413;55.658;37.498;2022-08-11T07:21:20;5.40;;;1.50;;
72422;SDS011;60413;55.658;37.498;2022-08-11T07:24:20;8.15;;;1.35;;
72422;SDS011;60413;55.658;37.498;2022-08-11T07:27:18;3.25;;;1.15;;
72422;SDS011;60413;55.658;37.498;2022-08-11T07:30:05;4.20;;;0.90;;
72422;SDS011;60413;55.658;37.498;2022-08-11T07:32:36;5.97;;;1.08;;
72422;SDS011;60413;55.658;37.498;2022-08-11T07:35:16;4.47;;;1.40;;
72422;SDS011;60413;55.658;37.498;2022-08-11T07:37:49;4.93;;;1.50;;
72422;SDS011;60413;55.658;37.498;2022-08-11T07:40:20;5.63;;;1.42;;
72422;SDS011;60413;55.658;37.498;2022-08-11T07:42:48;4.03;;;1.08;;
72422;SDS011;60413;55.658;37.498;2022-08-11T07:47:57;10.90;;;1.52;;
72422;SDS011;60413;55.658;37.498;2022-08-11T07:50:44;1.77;;;1.20;;
72422;SDS011;60413;55.658;37.498;2022-08-11T07:54:01;4.82;;;1.50;;
72422;SDS011;60413;55.658;37.498;2022-08-11T07:57:07;2.72;;;1.40;;
72422;SDS011;60413;55.658;37.498;2022-08-11T07:59:52;2.97;;;1.52;;
72422;SDS011;60413;55.658;37.498;2022-08-11T08:02:42;1.40;;;0.90;;
72422;SDS011;60413;55.658;37.498;2022-08-11T08:05:26;5.70;;;1.40;;
72422;SDS011;60413;55.658;37.498;2022-08-11T08:08:13;4.47;;;1.33;;
72422;SDS011;60413;55.658;37.498;2022-08-11T08:11:04;4.85;;;1.77;;
72422;SDS011;60413;55.658;37.498;2022-08-11T08:13:52;4.70;;;1.30;;
72422;SDS011;60413;55.658;37.498;2022-08-11T08:16:37;3.35;;;1.40;;
72422;SDS011;60413;55.658;37.498;2022-08-11T08:19:21;4.07;;;1.50;;
72422;SDS011;60413;55.658;37.498;2022-08-11T08:21:48;3.88;;;1.20;;
72422;SDS011;60413;55.658;37.498;2022-08-11T08:24:15;4.55;;;1.02;;
72422;SDS011;60413;55.658;37.498;2022-08-11T08:26:47;3.03;;;1.42;;
72422;SDS011;60413;55.658;37.498;2022-08-11T08:29:26;3.22;;;1.23;;
72422;SDS011;60413;55.658;37.498;2022-08-11T08:32:14;4.00;;;1.40;;
72422;SDS011;60413;55.658;37.498;2022-08-11T08:34:42;3.78;;;1.30;;
72422;SDS011;60413;55.658;37.498;2022-08-11T08:37:09;4.30;;;1.52;;
72422;SDS011;60413;55.658;37.498;2022-08-11T08:39:35;4.70;;;1.38;;
72422;SDS011;60413;55.658;37.498;2022-08-11T08:42:07;3.38;;;1.20;;
72422;SDS011;60413;55.658;37.498;2022-08-11T08:44:38;2.63;;;1.20;;
72422;SDS011;60413;55.658;37.498;2022-08-11T08:47:06;7.20;;;1.60;;
72422;SDS011;60413;55.658;37.498;2022-08-11T08:49:38;4.25;;;1.50;;
72422;SDS011;60413;55.658;37.498;2022-08-11T08:52:09;3.47;;;1.27;;
72422;SDS011;60413;55.658;37.498;2022-08-11T08:54:38;4.05;;;1.35;;
72422;SDS011;60413;55.658;37.498;2022-08-11T08:57:07;2.42;;;1.27;;
72422;SDS011;60413;55.658;37.498;2022-08-11T08:59:40;2.35;;;1.20;;
72422;SDS011;60413;55.658;37.498;2022-08-11T09:02:09;2.05;;;1.10;;
72422;SDS011;60413;55.658;37.498;2022-08-11T09:04:42;6.72;;;1.88;;
72422;SDS011;60413;55.658;37.498;2022-08-11T09:07:14;1.88;;;1.10;;
72422;SDS011;60413;55.658;37.498;2022-08-11T09:09:48;2.70;;;1.17;;
72422;SDS011;60413;55.658;37.498;2022-08-11T09:12:19;3.00;;;1.20;;
72422;SDS011;60413;55.658;37.498;2022-08-11T09:14:55;1.90;;;1.00;;
72422;SDS011;60413;55.658;37.498;2022-08-11T09:17:27;3.42;;;1.25;;
72422;SDS011;60413;55.658;37.498;2022-08-11T09:20:00;2.55;;;1.00;;
72422;SDS011;60413;55.658;37.498;2022-08-11T09:22:30;4.32;;;1.02;;
72422;SDS011;60413;55.658;37.498;2022-08-11T09:25:17;3.22;;;1.13;;
72422;SDS011;60413;55.658;37.498;2022-08-11T09:28:11;2.80;;;1.40;;
72422;SDS011;60413;55.658;37.498;2022-08-11T09:30:47;2.83;;;1.20;;
72422;SDS011;60413;55.658;37.498;2022-08-11T09:33:20;5.63;;;1.10;;
72422;SDS011;60413;55.658;37.498;2022-08-11T09:35:48;3.33;;;1.30;;
72422;SDS011;60413;55.658;37.498;2022-08-11T09:38:19;3.78;;;1.20;;
72422;SDS011;60413;55.658;37.498;2022-08-11T09:41:10;2.65;;;1.30;;
72422;SDS011;60413;55.658;37.498;2022-08-11T09:43:41;4.30;;;1.50;;
72422;SDS011;60413;55.658;37.498;2022-08-11T09:46:32;2.90;;;1.25;;
72422;SDS011;60413;55.658;37.498;2022-08-11T09:48:59;2.72;;;1.30;;
72422;SDS011;60413;55.658;37.498;2022-08-11T09:51:29;4.85;;;1.25;;
72422;SDS011;60413;55.658;37.498;2022-08-11T09:54:04;2.45;;;1.30;;
72422;SDS011;60413;55.658;37.498;2022-08-11T09:56:37;3.53;;;1.30;;
72422;SDS011;60413;55.658;37.498;2022-08-11T09:59:24;3.92;;;1.50;;
72422;SDS011;60413;55.658;37.498;2022-08-11T10:02:01;5.95;;;1.60;;
72422;SDS011;60413;55.658;37.498;2022-08-11T10:04:36;10.07;;;1.50;;
72422;SDS011;60413;55.658;37.498;2022-08-11T10:07:14;3.40;;;1.50;;
72422;SDS011;60413;55.658;37.498;2022-08-11T10:09:52;3.00;;;1.20;;
72422;SDS011;60413;55.658;37.498;2022-08-11T10:12:26;6.18;;;1.40;;
72422;SDS011;60413;55.658;37.498;2022-08-11T10:15:00;4.18;;;1.13;;
72422;SDS011;60413;55.658;37.498;2022-08-11T10:17:57;2.58;;;1.30;;
72422;SDS011;60413;55.658;37.498;2022-08-11T10:20:59;6.03;;;1.30;;
72422;SDS011;60413;55.658;37.498;2022-08-11T10:23:29;3.33;;;1.85;;
72422;SDS011;60413;55.658;37.498;2022-08-11T10:26:22;5.60;;;1.30;;
72422;SDS011;60413;55.658;37.498;2022-08-11T10:29:09;3.63;;;1.40;;
72422;SDS011;60413;55.658;37.498;2022-08-11T10:31:57;8.48;;;1.95;;
72422;SDS011;60413;55.658;37.498;2022-08-11T10:34:48;3.13;;;1.30;;
72422;SDS011;60413;55.658;37.498;2022-08-11T10:37:16;3.38;;;1.33;;
72422;SDS011;60413;55.658;37.498;2022-08-11T10:39:44;4.47;;;1.27;;
72422;SDS011;60413;55.658;37.498;2022-08-11T10:42:11;2.45;;;1.35;;
72422;SDS011;60413;55.658;37.498;2022-08-11T10:44:57;2.63;;;1.20;;
72422;SDS011;60413;55.658;37.498;2022-08-11T10:47:26;4.45;;;1.40;;
72422;SDS011;60413;55.658;37.498;2022-08-11T10:50:09;3.22;;;1.35;;
72422;SDS011;60413;55.658;37.498;2022-08-11T10:52:58;3.05;;;1.40;;
72422;SDS011;60413;55.658;37.498;2022-08-11T10:55:44;2.15;;;1.15;;
72422;SDS011;60413;55.658;37.498;2022-08-11T10:58:32;3.88;;;1.20;;
72422;SDS011;60413;55.658;37.498;2022-08-11T11:01:21;2.83;;;1.27;;
72422;SDS011;60413;55.658;37.498;2022-08-11T11:03:51;3.83;;;1.30;;
72422;SDS011;60413;55.658;37.498;2022-08-11T11:06:37;3.95;;;1.30;;
72422;SDS011;60413;55.658;37.498;2022-08-11T11:09:16;3.00;;;1.35;;
72422;SDS011;60413;55.658;37.498;2022-08-11T11:12:12;3.92;;;1.98;;
72422;SDS011;60413;55.658;37.498;2022-08-11T11:14:59;5.88;;;1.60;;
72422;SDS011;60413;55.658;37.498;2022-08-11T11:17:49;4.88;;;1.60;;
72422;SDS011;60413;55.658;37.498;2022-08-11T11:20:41;2.35;;;1.23;;
72422;SDS011;60413;55.658;37.498;2022-08-11T11:28:54;2.85;;;1.65;;
72422;SDS011;60413;55.658;37.498;2022-08-11T11:37:03;2.92;;;1.70;;
72422;SDS011;60413;55.658;37.498;2022-08-11T11:39:31;3.63;;;1.65;;
72422;SDS011;60413;55.658;37.498;2022-08-11T11:41:59;4.93;;;1.50;;
72422;SDS011;60413;55.658;37.498;2022-08-11T11:44:29;3.20;;;1.60;;
72422;SDS011;60413;55.658;37.498;2022-08-11T11:46:57;1.90;;;1.40;;
72422;SDS011;60413;55.658;37.498;2022-08-11T11:49:26;6.15;;;1.38;;
72422;SDS011;60413;55.658;37.498;2022-08-11T11:51:54;8.65;;;1.55;;
72422;SDS011;60413;55.658;37.498;2022-08-11T11:54:23;4.38;;;1.58;;
72422;SDS011;60413;55.658;37.498;2022-08-11T11:56:52;4.75;;;1.67;;
72422;SDS011;60413;55.658;37.498;2022-08-11T11:59:23;3.03;;;1.40;;
72422;SDS011;60413;55.658;37.498;2022-08-11T12:02:11;2.72;;;1.30;;
72422;SDS011;60413;55.658;37.498;2022-08-11T12:04:40;3.35;;;1.60;;
72422;SDS011;60413;55.658;37.498;2022-08-11T12:07:13;4.63;;;1.40;;
72422;SDS011;60413;55.658;37.498;2022-08-11T12:09:58;7.53;;;1.70;;
72422;SDS011;60413;55.658;37.498;2022-08-11T12:12:25;4.65;;;1.25;;
72422;SDS011;60413;55.658;37.498;2022-08-11T12:15:10;3.10;;;1.60;;
72422;SDS011;60413;55.658;37.498;2022-08-11T12:17:48;3.13;;;1.38;;
72422;SDS011;60413;55.658;37.498;2022-08-11T12:20:23;4.25;;;1.70;;
72422;SDS011;60413;55.658;37.498;2022-08-11T12:22:50;3.50;;;1.50;;
72422;SDS011;60413;55.658;37.498;2022-08-11T12:25:35;4.45;;;1.90;;
72422;SDS011;60413;55.658;37.498;2022-08-11T12:28:20;3.92;;;2.00;;
72422;SDS011;60413;55.658;37.498;2022-08-11T12:30:48;7.00;;;1.60;;
72422;SDS011;60413;55.658;37.498;2022-08-11T12:33:17;9.10;;;3.13;;
72422;SDS011;60413;55.658;37.498;2022-08-11T12:35:44;4.53;;;2.15;;
72422;SDS011;60413;55.658;37.498;2022-08-11T12:38:13;7.63;;;1.60;;
72422;SDS011;60413;55.658;37.498;2022-08-11T12:40:42;6.97;;;1.85;;
72422;SDS011;60413;55.658;37.498;2022-08-11T12:43:49;4.82;;;1.63;;
72422;SDS011;60413;55.658;37.498;2022-08-11T12:46:34;4.43;;;1.90;;
72422;SDS011;60413;55.658;37.498;2022-08-11T12:49:09;5.00;;;1.70;;
72422;SDS011;60413;55.658;37.498;2022-08-11T12:51:59;8.75;;;1.52;;
72422;SDS011;60413;55.658;37.498;2022-08-11T12:54:33;1.90;;;1.20;;
72422;SDS011;60413;55.658;37.498;2022-08-11T13:00:19;3.60;;;1.58;;
72422;SDS011;60413;55.658;37.498;2022-08-11T13:03:05;7.13;;;1.40;;
72422;SDS011;60413;55.658;37.498;2022-08-11T13:05:54;5.47;;;1.60;;
72422;SDS011;60413;55.658;37.498;2022-08-11T13:08:35;5.45;;;1.63;;
72422;SDS011;60413;55.658;37.498;2022-08-11T13:11:25;4.53;;;1.55;;
72422;SDS011;60413;55.658;37.498;2022-08-11T13:14:15;4.78;;;1.70;;
72422;SDS011;60413;55.658;37.498;2022-08-11T13:16:41;3.08;;;1.60;;
72422;SDS011;60413;55.658;37.498;2022-08-11T13:19:27;3.03;;;1.45;;
72422;SDS011;60413;55.658;37.498;2022-08-11T13:21:55;5.18;;;2.28;;
72422;SDS011;60413;55.658;37.498;2022-08-11T13:24:22;3.30;;;1.70;;
72422;SDS011;60413;55.658;37.498;2022-08-11T13:26:49;3.92;;;1.63;;
72422;SDS011;60413;55.658;37.498;2022-08-11T13:29:25;3.75;;;1.48;;
72422;SDS011;60413;55.658;37.498;2022-08-11T13:31:54;4.18;;;1.50;;
72422;SDS011;60413;55.658;37.498;2022-08-11T13:34:24;4.03;;;1.80;;
72422;SDS011;60413;55.658;37.498;2022-08-11T13:36:54;7.22;;;2.35;;
72422;SDS011;60413;55.658;37.498;2022-08-11T13:39:22;3.30;;;1.65;;
72422;SDS011;60413;55.658;37.498;2022-08-11T13:41:55;4.90;;;1.63;;
72422;SDS011;60413;55.658;37.498;2022-08-11T13:44:24;6.32;;;1.90;;
72422;SDS011;60413;55.658;37.498;2022-08-11T13:46:53;5.15;;;1.88;;
72422;SDS011;60413;55.658;37.498;2022-08-11T13:49:35;5.07;;;1.77;;
72422;SDS011;60413;55.658;37.498;2022-08-11T13:52:14;2.78;;;1.58;;
72422;SDS011;60413;55.658;37.498;2022-08-11T13:54:45;6.00;;;2.30;;
72422;SDS011;60413;55.658;37.498;2022-08-11T13:57:13;4.80;;;1.60;;
72422;SDS011;60413;55.658;37.498;2022-08-11T13:59:46;4.40;;;1.42;;
72422;SDS011;60413;55.658;37.498;2022-08-11T14:02:24;4.50;;;1.90;;
72422;SDS011;60413;55.658;37.498;2022-08-11T14:05:06;8.77;;;1.77;;
72422;SDS011;60413;55.658;37.498;2022-08-11T14:07:41;6.00;;;1.73;;
72422;SDS011;60413;55.658;37.498;2022-08-11T14:10:15;3.47;;;1.58;;
72422;SDS011;60413;55.658;37.498;2022-08-11T14:12:44;7.53;;;2.08;;
72422;SDS011;60413;55.658;37.498;2022-08-11T14:15:39;2.70;;;1.30;;
72422;SDS011;60413;55.658;37.498;2022-08-11T14:18:17;4.40;;;1.50;;
72422;SDS011;60413;55.658;37.498;2022-08-11T14:20:46;2.90;;;1.45;;
72422;SDS011;60413;55.658;37.498;2022-08-11T14:23:38;7.30;;;1.83;;
72422;SDS011;60413;55.658;37.498;2022-08-11T14:26:07;3.45;;;1.60;;
72422;SDS011;60413;55.658;37.498;2022-08-11T14:29:06;4.05;;;1.77;;
72422;SDS011;60413;55.658;37.498;2022-08-11T14:31:48;3.45;;;1.63;;
72422;SDS011;60413;55.658;37.498;2022-08-11T14:34:24;5.25;;;1.48;;
72422;SDS011;60413;55.658;37.498;2022-08-11T14:37:24;3.47;;;1.75;;
72422;SDS011;60413;55.658;37.498;2022-08-11T14:40:00;7.40;;;1.65;;
72422;SDS011;60413;55.658;37.498;2022-08-11T14:42:46;5.80;;;2.10;;
72422;SDS011;60413;55.658;37.498;2022-08-11T14:45:33;5.95;;;1.52;;
72422;SDS011;60413;55.658;37.498;2022-08-11T14:48:17;8.10;;;1.85;;
72422;SDS011;60413;55.658;37.498;2022-08-11T14:50:46;6.63;;;1.60;;
72422;SDS011;60413;55.658;37.498;2022-08-11T14:53:13;3.67;;;1.83;;
72422;SDS011;60413;55.658;37.498;2022-08-11T14:55:42;3.35;;;1.90;;
72422;SDS011;60413;55.658;37.498;2022-08-11T14:58:28;3.70;;;1.40;;
72422;SDS011;60413;55.658;37.498;2022-08-11T15:01:10;4.47;;;1.60;;
72422;SDS011;60413;55.658;37.498;2022-08-11T15:04:01;4.30;;;1.85;;
72422;SDS011;60413;55.658;37.498;2022-08-11T15:06:28;3.80;;;1.63;;
72422;SDS011;60413;55.658;37.498;2022-08-11T15:09:03;4.93;;;2.00;;
72422;SDS011;60413;55.658;37.498;2022-08-11T15:11:32;5.97;;;1.60;;
72422;SDS011;60413;55.658;37.498;2022-08-11T15:14:17;5.50;;;1.95;;
72422;SDS011;60413;55.658;37.498;2022-08-11T15:17:06;5.80;;;1.63;;
72422;SDS011;60413;55.658;37.498;2022-08-11T15:23:09;3.85;;;1.63;;
72422;SDS011;60413;55.658;37.498;2022-08-11T15:25:55;5.35;;;1.90;;
72422;SDS011;60413;55.658;37.498;2022-08-11T15:28:24;5.03;;;1.60;;
72422;SDS011;60413;55.658;37.498;2022-08-11T15:31:15;6.18;;;1.90;;
72422;SDS011;60413;55.658;37.498;2022-08-11T15:37:02;6.07;;;1.80;;
72422;SDS011;60413;55.658;37.498;2022-08-11T15:40:12;5.13;;;1.70;;
72422;SDS011;60413;55.658;37.498;2022-08-11T15:46:16;8.38;;;2.08;;
72422;SDS011;60413;55.658;37.498;2022-08-11T15:49:00;5.22;;;1.70;;
72422;SDS011;60413;55.658;37.498;2022-08-11T15:51:42;5.78;;;1.83;;
72422;SDS011;60413;55.658;37.498;2022-08-11T15:54:29;3.38;;;1.60;;
72422;SDS011;60413;55.658;37.498;2022-08-11T15:56:57;9.90;;;1.67;;
72422;SDS011;60413;55.658;37.498;2022-08-11T15:59:35;4.75;;;1.83;;
72422;SDS011;60413;55.658;37.498;2022-08-11T16:02:25;7.35;;;1.98;;
72422;SDS011;60413;55.658;37.498;2022-08-11T16:05:11;3.08;;;1.60;;
72422;SDS011;60413;55.658;37.498;2022-08-11T16:07:47;7.03;;;1.70;;
72422;SDS011;60413;55.658;37.498;2022-08-11T16:10:16;4.40;;;1.77;;
72422;SDS011;60413;55.658;37.498;2022-08-11T16:12:48;5.07;;;2.05;;
72422;SDS011;60413;55.658;37.498;2022-08-11T16:15:37;5.72;;;1.88;;
72422;SDS011;60413;55.658;37.498;2022-08-11T16:18:26;4.50;;;1.73;;
72422;SDS011;60413;55.658;37.498;2022-08-11T16:21:17;6.50;;;2.15;;
72422;SDS011;60413;55.658;37.498;2022-08-11T16:26:38;3.38;;;1.40;;
72422;SDS011;60413;55.658;37.498;2022-08-11T16:29:06;8.13;;;2.00;;
72422;SDS011;60413;55.658;37.498;2022-08-11T16:31:34;4.70;;;1.58;;
72422;SDS011;60413;55.658;37.498;2022-08-11T16:34:02;7.10;;;1.80;;
72422;SDS011;60413;55.658;37.498;2022-08-11T16:36:29;5.45;;;1.83;;
72422;SDS011;60413;55.658;37.498;2022-08-11T16:39:17;4.45;;;2.00;;
72422;SDS011;60413;55.658;37.498;2022-08-11T16:41:44;5.53;;;2.20;;
72422;SDS011;60413;55.658;37.498;2022-08-11T16:44:36;4.55;;;2.08;;
72422;SDS011;60413;55.658;37.498;2022-08-11T16:47:27;7.65;;;1.80;;
72422;SDS011;60413;55.658;37.498;2022-08-11T16:49:53;6.85;;;2.00;;
72422;SDS011;60413;55.658;37.498;2022-08-11T16:52:24;5.50;;;2.08;;
72422;SDS011;60413;55.658;37.498;2022-08-11T16:54:56;5.88;;;2.00;;
72422;SDS011;60413;55.658;37.498;2022-08-11T16:57:26;6.57;;;1.67;;
72422;SDS011;60413;55.658;37.498;2022-08-11T17:00:14;7.28;;;1.88;;
72422;SDS011;60413;55.658;37.498;2022-08-11T17:06:03;5.88;;;2.00;;
72422;SDS011;60413;55.658;37.498;2022-08-11T17:08:50;10.13;;;2.25;;
72422;SDS011;60413;55.658;37.498;2022-08-11T17:23:50;4.70;;;2.70;;
72422;SDS011;60413;55.658;37.498;2022-08-11T17:26:39;6.95;;;3.75;;
72422;SDS011;60413;55.658;37.498;2022-08-11T17:29:37;9.07;;;3.35;;
72422;SDS011;60413;55.658;37.498;2022-08-11T17:32:20;8.13;;;2.72;;
72422;SDS011;60413;55.658;37.498;2022-08-11T17:35:10;10.50;;;3.85;;
72422;SDS011;60413;55.658;37.498;2022-08-11T17:38:15;7.32;;;3.47;;
72422;SDS011;60413;55.658;37.498;2022-08-11T17:41:01;22.38;;;10.68;;
72422;SDS011;60413;55.658;37.498;2022-08-11T17:43:50;10.85;;;3.72;;
72422;SDS011;60413;55.658;37.498;2022-08-11T17:46:36;8.55;;;3.10;;
72422;SDS011;60413;55.658;37.498;2022-08-11T17:49:28;9.70;;;3.72;;
72422;SDS011;60413;55.658;37.498;2022-08-11T17:52:14;9.93;;;2.70;;
72422;SDS011;60413;55.658;37.498;2022-08-11T17:55:40;8.55;;;3.00;;
72422;SDS011;60413;55.658;37.498;2022-08-11T17:59:23;12.18;;;3.58;;
72422;SDS011;60413;55.658;37.498;2022-08-11T18:08:23;9.07;;;2.88;;
72422;SDS011;60413;55.658;37.498;2022-08-11T18:11:08;5.85;;;2.70;;
72422;SDS011;60413;55.658;37.498;2022-08-11T18:13:54;14.10;;;3.33;;
72422;SDS011;60413;55.658;37.498;2022-08-11T18:16:44;9.82;;;3.70;;
72422;SDS011;60413;55.658;37.498;2022-08-11T18:19:28;8.70;;;3.47;;
72422;SDS011;60413;55.658;37.498;2022-08-11T18:22:17;8.02;;;2.90;;
72422;SDS011;60413;55.658;37.498;2022-08-11T18:25:06;10.27;;;3.08;;
72422;SDS011;60413;55.658;37.498;2022-08-11T18:27:53;9.98;;;3.97;;
72422;SDS011;60413;55.658;37.498;2022-08-11T18:30:41;15.90;;;3.42;;
72422;SDS011;60413;55.658;37.498;2022-08-11T18:33:52;9.40;;;3.60;;
72422;SDS011;60413;55.658;37.498;2022-08-11T18:36:41;5.95;;;2.13;;
72422;SDS011;60413;55.658;37.498;2022-08-11T18:39:34;8.80;;;2.58;;
72422;SDS011;60413;55.658;37.498;2022-08-11T18:42:25;4.63;;;2.42;;
72422;SDS011;60413;55.658;37.498;2022-08-11T18:45:13;4.45;;;2.25;;
72422;SDS011;60413;55.658;37.498;2022-08-11T18:48:00;6.28;;;2.83;;
72422;SDS011;60413;55.658;37.498;2022-08-11T18:50:49;7.22;;;3.22;;
72422;SDS011;60413;55.658;37.498;2022-08-11T18:53:38;7.95;;;3.22;;
72422;SDS011;60413;55.658;37.498;2022-08-11T18:56:30;6.35;;;2.78;;
72422;SDS011;60413;55.658;37.498;2022-08-11T18:59:17;10.25;;;2.78;;
72422;SDS011;60413;55.658;37.498;2022-08-11T19:02:06;4.40;;;2.50;;
72422;SDS011;60413;55.658;37.498;2022-08-11T19:04:57;9.10;;;2.72;;
72422;SDS011;60413;55.658;37.498;2022-08-11T19:07:43;6.82;;;2.42;;
72422;SDS011;60413;55.658;37.498;2022-08-11T19:10:31;7.78;;;2.53;;
72422;SDS011;60413;55.658;37.498;2022-08-11T19:13:17;6.90;;;2.38;;
72422;SDS011;60413;55.658;37.498;2022-08-11T19:16:03;3.85;;;2.13;;
72422;SDS011;60413;55.658;37.498;2022-08-11T19:18:53;5.50;;;2.30;;
72422;SDS011;60413;55.658;37.498;2022-08-11T19:21:39;4.97;;;2.50;;
72422;SDS011;60413;55.658;37.498;2022-08-11T19:24:26;10.27;;;2.97;;
72422;SDS011;60413;55.658;37.498;2022-08-11T19:27:13;5.72;;;2.33;;
72422;SDS011;60413;55.658;37.498;2022-08-11T19:30:00;6.78;;;2.38;;
72422;SDS011;60413;55.658;37.498;2022-08-11T19:35:29;3.90;;;2.38;;
72422;SDS011;60413;55.658;37.498;2022-08-11T19:38:14;6.82;;;2.70;;
72422;SDS011;60413;55.658;37.498;2022-08-11T19:41:00;5.03;;;2.40;;
72422;SDS011;60413;55.658;37.498;2022-08-11T19:43:47;7.97;;;2.55;;
72422;SDS011;60413;55.658;37.498;2022-08-11T19:46:33;5.55;;;2.60;;
72422;SDS011;60413;55.658;37.498;2022-08-11T19:49:23;10.55;;;2.83;;
72422;SDS011;60413;55.658;37.498;2022-08-11T19:52:10;13.43;;;3.38;;
72422;SDS011;60413;55.658;37.498;2022-08-11T19:54:55;6.85;;;3.10;;
72422;SDS011;60413;55.658;37.498;2022-08-11T19:57:40;10.70;;;3.25;;
72422;SDS011;60413;55.658;37.498;2022-08-11T20:00:27;6.35;;;2.90;;
72422;SDS011;60413;55.658;37.498;2022-08-11T20:03:12;4.03;;;2.28;;
72422;SDS011;60413;55.658;37.498;2022-08-11T20:06:01;6.05;;;2.08;;
72422;SDS011;60413;55.658;37.498;2022-08-11T20:08:50;6.53;;;2.40;;
72422;SDS011;60413;55.658;37.498;2022-08-11T20:11:42;5.75;;;2.60;;
72422;SDS011;60413;55.658;37.498;2022-08-11T20:14:35;7.05;;;2.10;;
72422;SDS011;60413;55.658;37.498;2022-08-11T20:17:30;3.80;;;2.30;;
72422;SDS011;60413;55.658;37.498;2022-08-11T20:20:18;4.18;;;2.10;;
72422;SDS011;60413;55.658;37.498;2022-08-11T20:23:05;6.07;;;2.67;;
72422;SDS011;60413;55.658;37.498;2022-08-11T20:25:53;4.45;;;2.17;;
72422;SDS011;60413;55.658;37.498;2022-08-11T20:28:42;5.72;;;2.40;;
72422;SDS011;60413;55.658;37.498;2022-08-11T20:31:29;8.13;;;2.70;;
72422;SDS011;60413;55.658;37.498;2022-08-11T20:34:15;9.70;;;2.70;;
72422;SDS011;60413;55.658;37.498;2022-08-11T20:37:01;11.00;;;2.70;;
72422;SDS011;60413;55.658;37.498;2022-08-11T20:39:47;6.18;;;2.38;;
72422;SDS011;60413;55.658;37.498;2022-08-11T20:42:35;7.68;;;2.40;;